Weather observations for the past three days for
Starke County Airport
Imperial (Metric)
Date Time (cdt) Wind (mph) Vis. (mi.) Weather Sky Cond. Temperature (ºF) Relative Humidity Wind Chill (°F) Heat Index (°F) Pressure Precipitation (in)
Air Dwpt 6 hour altimeter (in) sea level (mb) 1 hr 3 hr 6 hr
Max. Min.
05 16:55 NW 13 10.00 Fair CLR 80.6 75.2 84% 86 29.93 0.0
05 16:35 NW 17 10.00 Fair CLR 80.6 73.4 79% 85 29.93 0.0
05 16:15 NW 13 G 21 10.00 Fair CLR 82.4 73.4 74% 88 29.92 0.0
05 15:55 N 14 10.00 Fair CLR 84.2 75.2 74% 92 29.92 0.0
05 15:35 NW 14 10.00 Fair CLR 84.2 75.2 74% 92 29.92 0.0
05 15:15 N 13 10.00 Fair CLR 86 75.2 70% 95 29.93 0.0
05 14:55 NW 14 G 18 10.00 Partly Cloudy FEW032 SCT040 86 75.2 70% 95 29.93 0.0
05 12:55 Vrbl 5 10.00 Mostly Cloudy SCT022 BKN032 BKN039 82.4 80.6 84.2 75.4 94% 94 29.94 0.0
05 12:35 N 9 10.00 Overcast BKN022 BKN029 OVC048 84.2 80.6 89% 98 29.94 0.0
05 12:15 N 5 10.00 Overcast SCT020 BKN029 OVC041 84.2 80.6 89% 98 29.95 0.0
05 11:55 Vrbl 2 9.00 Mostly Cloudy FEW020 BKN039 BKN046 84.2 80.6 89% 98 29.95 0.0
05 11:35 NE 6 8.00 Overcast BKN023 OVC039 80.6 80.6 100% 89 29.95 0.0
05 11:15 N 8 7.00 Mostly Cloudy SCT012 BKN021 BKN027 80.6 80.6 100% 89 29.95 0.0
05 10:55 NE 5 7.00 Overcast OVC012 80.6 80.6 100% 89 29.95 0.0
05 10:35 Vrbl 2 8.00 Overcast BKN012 OVC017 80.6 78.8 94% 88 29.95 0.0
05 10:15 Vrbl 1 9.00 Overcast BKN012 OVC017 80.6 78.8 94% 88 29.95 0.0
05 09:55 Vrbl 2 10.00 Mostly Cloudy BKN010 BKN060 BKN070 80.6 78.8 94% 88 29.94 0.0
05 09:35 Vrbl 3 10.00 Overcast OVC008 80.6 78.8 94% 88 29.94 0.0
05 09:15 SW 5 8.00 Overcast OVC006 78.8 78.8 100% 83 29.95 0.0
05 08:55 Vrbl 6 6.00 Fog/Mist OVC006 78.8 78.8 100% 83 29.94 0.0
05 08:35 S 6 5.00 Fog/Mist OVC004 77 77 100% 78 29.94 0.0
05 08:15 S 6 4.00 Fog/Mist OVC004 77 77 100% 78 29.93 0.0
05 07:55 SE 6 4.00 Fog/Mist OVC004 77 77 100% 78 29.93 0.0
05 07:35 SE 5 4.00 Fog/Mist OVC004 75.2 75.2 100% 73 29.93 0.0
05 07:15 S 3 4.00 Fog/Mist BKN004 BKN050 75.2 75.2 100% 73 29.92 0.0
05 06:55 Vrbl 3 3.00 Fog/Mist SCT050 SCT060 SCT120 75.2 75.2 77.9 71.1 100% 73 29.91 0.0
05 06:35 SE 5 2.00 Light Rain Fog/Mist OVC004 75.2 75.2 100% 73 29.91 0.0
05 06:15 Calm 2.00 Fog/Mist OVC004 75.2 75.2 100% 73 29.9 0.0
05 05:55 S 5 2.00 Fog/Mist OVC004 75.2 75.2 100% 73 29.9 0.0
05 05:35 SE 5 1.75 Fog/Mist OVC004 73.4 73.4 100% 29.91 0.0
05 05:15 SE 2 0.15 Fog BKN004 71.6 71.6 100% 29.9 0.0
05 04:55 SE 1 0.00 NULL NULL 71.6 71.6 100% 29.9 0.0
05 04:35 Vrbl 1 0.25 Fog VV002 71.6 71.6 100% 29.91 0.0
05 04:15 E 2 2.00 Fog/Mist CLR 73.4 73.4 100% 29.91 0.0
05 03:55 NE 3 2.50 Fog/Mist CLR 73.4 73.4 100% 29.91 0.0
05 03:35 E 2 4.00 Fog/Mist CLR 75.2 75.2 100% 73 29.91 0.0
05 03:15 E 2 1.75 Fog/Mist SCT110 73.4 73.4 100% 29.91 0.0
05 02:55 S 2 6.00 Fog/Mist SCT110 75.2 75.2 100% 73 29.9 0.0
05 02:35 SW 3 6.00 Fog/Mist CLR 75.2 75.2 100% 73 29.9 0.0
05 02:15 NW 3 5.00 Fog/Mist FEW110 75.2 75.2 100% 73 29.9 0.0
05 01:55 SW 6 6.00 Fog/Mist FEW110 77 77 100% 78 29.89 0.0
05 01:35 SW 6 6.00 Fog/Mist CLR 77 77 100% 78 29.88 0.0
05 01:15 SW 8 7.00 Fog/Mist CLR 77 77 100% 78 29.89 0.0
05 00:55 SW 7 6.00 Fog/Mist SCT080 77 77 86.5 74.5 100% 78 29.9 0.0
05 00:35 SW 6 1.25 Fog/Mist BKN080 75.2 75.2 100% 73 29.91 0.0
05 00:15 SW 3 4.00 Fog/Mist SCT080 75.2 75.2 100% 73 29.91 0.0
04 23:55 Vrbl 1 1.00 Fog/Mist BKN080 75.2 75.2 100% 73 29.91 0.0
04 23:35 SW 3 5.00 Fog/Mist FEW080 77 77 100% 78 29.92 0.0
04 23:15 S 5 3.00 Fog/Mist SCT080 77 77 100% 78 29.92 0.0
04 22:55 S 5 3.00 Fog/Mist SCT080 77 77 100% 78 29.92 0.0
04 22:35 S 2 4.00 Fog/Mist CLR 77 77 100% 78 29.93 0.0
04 22:15 SE 5 4.00 Fog/Mist FEW003 78.8 78.8 100% 83 29.93 0.0
04 21:56 SE 6 6.00 Fog/Mist CLR 78.8 78.8 100% 83 29.93 0.0
04 21:35 E 2 4.00 Fog/Mist CLR 77 77 100% 78 29.93 0.0
04 21:15 E 3 7.00 Fair CLR 78.8 78.8 100% 83 29.93 0.0
04 20:55 SE 5 8.00 Fair CLR 80.6 80.6 100% 89 29.92 0.0
04 20:35 E 5 8.00 Fair CLR 80.6 80.6 100% 89 29.91 0.0
04 20:15 SE 6 9.00 Fair CLR 80.6 80.6 100% 89 29.91 0.0
04 19:55 E 5 10.00 Fair CLR 82.4 80.6 94% 94 29.91 0.0
04 19:35 E 5 10.00 Fair CLR 80.6 80.6 100% 89 29.91 0.0
04 19:15 NE 1 9.00 Fair CLR 82.4 82.4 100% 96 29.91 0.0
04 18:55 Calm 10.00 Fair CLR 86 82.4 90.3 81.7 89% 105 29.91 0.0
04 18:35 SW 2 10.00 Fair CLR 87.8 80.6 79% 105 29.91 0.0
04 18:15 S 5 10.00 Fair CLR 87.8 80.6 79% 105 29.91 0.0
04 17:55 S 6 10.00 Fair CLR 89.6 80.6 75% 108 29.9 0.0
04 17:35 S 7 10.00 Fair CLR 89.6 78.8 71% 105 29.9 0.0
04 17:15 S 7 10.00 Fair CLR 89.6 78.8 71% 105 29.9 0.0
04 16:55 S 8 10.00 Fair CLR 89.6 78.8 71% 105 29.9 0.0
04 16:35 SW 9 10.00 Fair CLR 89.6 78.8 71% 105 29.9 0.0
04 16:15 S 9 10.00 Fair CLR 89.6 77 67% 103 29.9 0.0
04 15:55 S 12 10.00 Fair CLR 89.6 77 67% 103 29.9 0.0
04 15:35 S 12 10.00 Fair CLR 89.6 77 67% 103 29.91 0.0
04 15:15 S 13 10.00 Fair CLR 89.6 75.2 63% 100 29.91 0.0
04 14:55 S 14 G 21 10.00 Fair CLR 89.6 75.2 63% 100 29.91 0.0
04 14:35 S 9 10.00 Fair CLR 89.6 75.2 63% 100 29.93 0.0
04 14:15 SE 15 G 20 10.00 Fair CLR 87.8 75.2 66% 98 29.94 0.0
04 13:55 SE 14 G 20 10.00 Fair CLR 86 75.2 70% 95 29.95 0.0
04 13:35 E 15 10.00 Fair CLR 86 75.2 70% 95 29.99 0.0
04 13:15 E 17 10.00 Fair CLR 84.2 77 79% 94 30 0.0
04 12:55 NE 16 G 25 6.00 Light Rain Haze SCT035 SCT043 BKN075 82.4 77 88.2 73.2 84% 91 30.02 0.0
04 12:35 NE 21 G 26 10.00 Mostly Cloudy and Breezy SCT032 BKN075 BKN110 84.2 77 79% 94 30.03 0.0
04 12:15 E 9 10.00 Mostly Cloudy SCT075 SCT095 BKN120 86 77 75% 97 30.01 0.0
04 11:55 E 8 10.00 Mostly Cloudy SCT075 BKN095 86 77 75% 97 30.01 0.0
04 11:35 E 10 10.00 Fair CLR 87.8 78.8 75% 102 30 0.0
04 11:15 E 10 10.00 A Few Clouds FEW029 86 78.8 79% 99 30 0.0
04 10:55 N 7 G 16 10.00 Fair CLR 86 78.8 79% 99 30 0.0
04 10:35 N 9 10.00 Fair CLR 87.8 77 70% 100 30 0.0
04 10:15 Vrbl 6 10.00 Fair CLR 87.8 77 70% 100 29.98 0.0
04 09:55 Vrbl 3 10.00 Fair CLR 86 77 75% 97 29.98 0.0
04 09:35 SW 3 10.00 Fair CLR 86 77 75% 97 29.98 0.0
04 09:15 SW 6 10.00 Fair CLR 84.2 78.8 84% 96 29.97 0.0
04 08:55 SW 7 10.00 Fair CLR 82.4 77 84% 91 29.97 0.0
04 08:35 SW 8 10.00 Fair CLR 82.4 77 84% 91 29.97 0.0
04 08:15 S 5 10.00 Fair CLR 78.8 77 94% 83 29.97 0.0
04 07:55 S 5 10.00 Fair CLR 78.8 77 94% 83 29.97 0.0
04 07:35 S 3 10.00 Fair CLR 77 75.2 94% 78 29.96 0.0
04 07:15 S 5 10.00 Fair CLR 75.2 75.2 100% 73 29.96 0.0
04 06:55 S 5 10.00 Fair CLR 73.4 73.4 75.7 72 100% 29.95 0.0
04 06:35 S 5 10.00 Fair CLR 73.4 73.4 100% 29.94 0.0
04 06:15 S 5 10.00 Fair CLR 73.4 73.4 100% 29.94 0.0
04 05:55 S 3 10.00 Fair CLR 73.4 73.4 100% 29.93 0.0
04 05:35 S 5 10.00 Fair CLR 73.4 73.4 100% 29.92 0.0
04 05:15 SW 6 10.00 Fair CLR 75.2 75.2 100% 73 29.92 0.0
04 04:55 SW 3 10.00 Fair CLR 75.2 75.2 100% 73 29.93 0.0
04 04:35 SW 6 10.00 Fair CLR 73.4 73.4 100% 29.92 0.0
04 04:15 S 2 10.00 Fair CLR 73.4 73.4 100% 29.94 0.0
04 03:55 Calm 10.00 Fair CLR 71.6 71.6 100% 29.94 0.0
04 03:35 S 3 10.00 Fair CLR 73.4 73.4 100% 29.94 0.0
04 03:15 S 2 10.00 Fair CLR 73.4 73.4 100% 29.93 0.0
04 02:55 S 5 10.00 Fair CLR 75.2 75.2 100% 73 29.93 0.0
04 02:35 S 6 10.00 Fair CLR 75.2 75.2 100% 73 29.92 0.0
04 02:15 S 7 10.00 Fair CLR 75.2 75.2 100% 73 29.93 0.0
04 01:55 S 5 10.00 Fair CLR 75.2 75.2 100% 73 29.95 0.0
04 01:35 S 3 8.00 Fair CLR 75.2 75.2 100% 73 29.96 0.0
04 01:15 S 5 10.00 Fair CLR 75.2 75.2 100% 73 29.96 0.0
04 00:55 S 6 10.00 Fair CLR 75.2 75.2 83.1 75 100% 73 29.96 0.0
04 00:35 S 5 10.00 Fair CLR 75.2 75.2 100% 73 29.96 0.0
04 00:15 S 3 7.00 Fair CLR 75.2 75.2 100% 73 29.96 0.0
03 23:55 S 6 10.00 Fair CLR 75.2 75.2 100% 73 29.96 0.0
03 23:35 S 5 9.00 Fair CLR 75.2 75.2 100% 73 29.96 0.0
03 23:15 S 5 9.00 A Few Clouds FEW090 75.2 75.2 100% 73 29.97 0.0
03 22:55 SE 6 10.00 Fair CLR 77 75.2 94% 78 29.97 0.0
03 22:35 SE 2 10.00 Fair CLR 77 75.2 94% 78 29.97 0.0
03 22:15 SE 10 9.00 A Few Clouds FEW120 78.8 75.2 89% 82 29.96 0.0
03 21:55 S 5 10.00 Fair CLR 78.8 77 94% 83 29.96 0.0
03 21:35 SE 9 10.00 Fair CLR 78.8 75.2 89% 82 29.96 0.0
03 21:15 SE 12 10.00 Partly Cloudy SCT120 80.6 75.2 84% 86 29.95 0.0
03 20:55 SE 10 10.00 Overcast SCT080 OVC120 80.6 75.2 84% 86 29.95 0.0
03 20:35 SE 7 10.00 Overcast BKN090 OVC120 80.6 75.2 84% 86 29.95 0.0
03 20:15 SE 6 10.00 Overcast BKN080 OVC120 78.8 75.2 89% 82 29.95 0.0
03 19:55 E 7 10.00 Mostly Cloudy BKN080 BKN100 80.6 75.2 84% 86 29.94 0.0
03 19:35 SE 6 10.00 A Few Clouds FEW090 78.8 75.2 89% 82 29.94 0.0
03 19:16 SE 6 10.00 A Few Clouds FEW090 80.6 75.2 84% 86 29.94 0.0
03 18:55 SE 5 10.00 Fair CLR 82.4 75.2 95 82.4 79% 89 29.94 0.0
03 18:35 SE 6 10.00 Fair CLR 84.2 75.2 74% 92 29.93 0.0
03 18:15 SE 6 10.00 Fair CLR 86 75.2 70% 95 29.94 0.0
03 17:55 SE 7 10.00 Fair CLR 86 73.4 66% 93 29.94 0.0
03 17:35 E 5 10.00 Fair CLR 87.8 75.2 66% 98 29.93 0.0
03 17:15 Calm 10.00 Fair CLR 87.8 73.4 62% 96 29.93 0.0
03 16:55 NE 9 10.00 Fair CLR 86 73.4 66% 93 29.94 0.0
03 16:35 NE 8 10.00 Fair CLR 87.8 73.4 62% 96 29.94 0.0
03 16:15 NE 9 10.00 Fair CLR 87.8 73.4 62% 96 29.94 0.0
03 15:55 NE 7 10.00 Fair CLR 87.8 73.4 62% 96 29.94 0.0
03 15:35 N 7 10.00 Fair CLR 87.8 73.4 62% 96 29.94 0.0
03 15:15 N 10 10.00 Fair CLR 86 73.4 66% 93 29.94 0.0
03 14:55 N 9 10.00 A Few Clouds FEW100 86 73.4 66% 93 29.94 0.0
03 14:35 N 9 10.00 Partly Cloudy SCT110 82.4 73.4 74% 88 29.95 0.0
03 14:15 N 13 10.00 Partly Cloudy FEW046 SCT065 SCT080 82.4 73.4 74% 88 29.96 0.0
03 13:55 N 18 10.00 Partly Cloudy FEW048 SCT065 SCT080 84.2 73.4 70% 91 29.97 0.0
03 13:35 SW 9 10.00 Fair CLR 95 77 56% 110 29.95 0.0
03 13:15 SW 8 10.00 Fair CLR 93.2 77 59% 107 29.95 0.0
03 12:55 SW 9 10.00 Fair CLR 93.2 78.8 93.6 73.9 63% 110 29.96 0.0
03 12:35 SW 7 10.00 Fair CLR 93.2 78.8 63% 110 29.96 0.0
03 12:15 S 8 10.00 Fair CLR 93.2 77 59% 107 29.96 0.0
03 11:55 Vrbl 6 10.00 Fair CLR 91.4 78.8 67% 108 29.95 0.0
03 11:35 S 6 10.00 Fair CLR 91.4 77 63% 105 29.96 0.0
03 11:15 Vrbl 3 10.00 Fair CLR 89.6 77 67% 103 29.96 0.0
03 10:55 SW 7 10.00 Fair CLR 89.6 77 67% 103 29.97 0.0
03 10:35 SW 8 10.00 Fair CLR 87.8 77 70% 100 29.97 0.0
03 10:15 SW 6 10.00 Fair CLR 87.8 77 70% 100 29.98 0.0
03 09:55 SW 7 10.00 Fair CLR 86 77 75% 97 29.97 0.0
03 09:35 SW 7 10.00 Fair CLR 84.2 77 79% 94 29.97 0.0
03 09:15 SW 9 10.00 Fair CLR 84.2 77 79% 94 29.97 0.0
03 08:55 SW 8 10.00 Fair CLR 82.4 77 84% 91 29.97 0.0
03 08:35 SW 8 10.00 Fair CLR 80.6 77 89% 87 29.97 0.0
03 08:15 SW 6 10.00 Fair CLR 80.6 75.2 84% 86 29.97 0.0
03 07:55 SW 7 10.00 Fair CLR 78.8 75.2 89% 82 29.98 0.0
03 07:35 SW 8 10.00 Fair CLR 77 75.2 94% 78 29.98 0.0
03 07:15 SW 6 10.00 Fair CLR 75.2 75.2 100% 73 29.98 0.0
03 06:55 S 5 10.00 Fair CLR 73.4 73.4 76.6 73 100% 29.98 0.0
03 06:35 SW 5 10.00 Fair CLR 73.4 73.4 100% 29.98 0.0
03 06:15 Calm 10.00 Fair CLR 73.4 73.4 100% 29.97 0.0
03 05:55 S 5 10.00 Fair CLR 73.4 73.4 100% 29.97 0.0
03 05:35 SW 5 8.00 Fair CLR 73.4 73.4 100% 29.97 0.0
03 05:15 SW 5 9.00 Fair CLR 73.4 73.4 100% 29.97 0.0
03 04:55 S 5 10.00 Fair CLR 73.4 73.4 100% 29.97 0.0
03 04:35 S 3 10.00 Fair CLR 75.2 75.2 100% 73 29.96 0.0
03 04:15 SW 5 10.00 Fair CLR 75.2 75.2 100% 73 29.96 0.0
03 03:55 SW 5 10.00 Fair CLR 75.2 75.2 100% 73 29.96 0.0
03 03:35 SW 5 10.00 Fair CLR 75.2 75.2 100% 73 29.96 0.0
03 03:15 SW 5 10.00 Fair CLR 77 75.2 94% 78 29.96 0.0
03 02:55 SW 6 10.00 Fair CLR 77 75.2 94% 78 29.96 0.0
03 02:35 SW 7 10.00 Fair CLR 77 77 100% 78 29.95 0.0
03 02:15 SW 6 10.00 Fair CLR 77 77 100% 78 29.95 0.0
03 01:35 S 6 10.00 Fair CLR 75.2 75.2 100% 73 29.95 0.0
03 01:15 S 3 10.00 Fair CLR 75.2 75.2 100% 73 29.96 0.0
03 00:55 SW 3 10.00 Fair CLR 75.2 75.2 86.5 74.7 100% 73 29.95 0.0
03 00:35 SW 3 9.00 Fair CLR 75.2 75.2 100% 73 29.95 0.0
03 00:15 SW 6 10.00 Fair CLR 78.8 77 94% 83 29.94 0.0
02 23:55 SW 6 9.00 Fair CLR 78.8 77 94% 83 29.94 0.0
02 23:35 SW 5 10.00 Fair CLR 78.8 77 94% 83 29.94 0.0
02 23:15 S 5 6.00 Fog/Mist CLR 78.8 78.8 100% 83 29.94 0.0
02 22:55 SW 6 10.00 Fair CLR 78.8 78.8 100% 83 29.94 0.0
02 22:35 S 6 10.00 Partly Cloudy SCT100 78.8 78.8 100% 83 29.94 0.0
02 22:15 S 6 10.00 Partly Cloudy SCT100 78.8 78.8 100% 83 29.94 0.0
02 21:55 S 6 10.00 A Few Clouds FEW100 78.8 78.8 100% 83 29.95 0.0
02 21:35 S 6 10.00 Fair CLR 78.8 78.8 100% 83 29.95 0.0
02 21:15 S 6 8.00 Fair CLR 80.6 78.8 94% 88 29.95 0.0
02 20:55 S 6 10.00 Fair CLR 80.6 78.8 94% 88 29.95 0.0
02 20:35 S 6 10.00 Fair CLR 80.6 78.8 94% 88 29.94 0.0
02 20:15 S 6 10.00 Fair CLR 82.4 78.8 89% 92 29.94 0.0
02 19:55 S 7 10.00 Fair CLR 82.4 78.8 89% 92 29.93 0.0
02 19:35 SW 7 10.00 Fair CLR 84.2 78.8 84% 96 29.93 0.0
02 19:15 SW 6 10.00 Fair CLR 84.2 78.8 84% 96 29.93 0.0
02 18:55 SW 7 10.00 Fair CLR 86 78.8 93.6 86.7 79% 99 29.93 0.0
02 18:35 S 7 10.00 Fair CLR 87.8 80.6 79% 105 29.93 0.0
02 18:15 S 7 10.00 Fair CLR 89.6 78.8 71% 105 29.93 0.0
02 17:55 SW 7 10.00 Fair CLR 89.6 80.6 75% 108 29.94 0.0
02 17:35 S 7 10.00 Fair CLR 91.4 80.6 71% 111 29.93 0.0
02 17:15 Calm 10.00 Fair CLR 91.4 78.8 67% 108 29.94 0.0
Date Time (cdt) Wind (mph) Vis. (mi.) Weather Sky Cond. Air Dwpt Max. Min. Relative Humidity Wind Chill (°F) Heat Index (°F) altimeter (in) sea level (mb) 1 hr 3 hr 6 hr
6 hour
Temperature (ºF) Pressure Precipitation (in)